sensor_id;sensor_type;location;lat;lon;timestamp;pressure;altitude;pressure_sealevel;temperature;humidity
49827;BME280;35715;51.570;6.036;2023-05-10T00:00:09;100712.56;;;15.19;100.00
49827;BME280;35715;51.570;6.036;2023-05-10T00:05:37;100714.09;;;15.15;100.00
49827;BME280;35715;51.570;6.036;2023-05-10T00:08:09;100705.50;;;15.16;100.00
49827;BME280;35715;51.570;6.036;2023-05-10T00:10:34;100717.59;;;15.16;100.00
49827;BME280;35715;51.570;6.036;2023-05-10T00:15:30;100707.00;;;15.11;100.00
49827;BME280;35715;51.570;6.036;2023-05-10T00:17:55;100709.53;;;15.10;100.00
49827;BME280;35715;51.570;6.036;2023-05-10T00:20:21;100705.13;;;15.08;100.00
49827;BME280;35715;51.570;6.036;2023-05-10T00:22:46;100711.97;;;15.06;100.00
49827;BME280;35715;51.570;6.036;2023-05-10T00:25:11;100709.59;;;15.11;100.00
49827;BME280;35715;51.570;6.036;2023-05-10T00:27:37;100709.47;;;15.08;100.00
49827;BME280;35715;51.570;6.036;2023-05-10T00:30:02;100707.81;;;15.10;100.00
49827;BME280;35715;51.570;6.036;2023-05-10T00:32:45;100716.47;;;15.11;100.00
49827;BME280;35715;51.570;6.036;2023-05-10T00:35:10;100711.22;;;15.09;100.00
49827;BME280;35715;51.570;6.036;2023-05-10T00:37:36;100707.75;;;15.08;100.00
49827;BME280;35715;51.570;6.036;2023-05-10T00:40:01;100704.25;;;15.08;100.00
49827;BME280;35715;51.570;6.036;2023-05-10T00:42:31;100701.72;;;15.10;100.00
49827;BME280;35715;51.570;6.036;2023-05-10T00:44:57;100704.25;;;15.08;100.00
49827;BME280;35715;51.570;6.036;2023-05-10T00:47:22;100704.25;;;15.08;100.00
49827;BME280;35715;51.570;6.036;2023-05-10T00:49:47;100701.66;;;15.08;100.00
49827;BME280;35715;51.570;6.036;2023-05-10T00:52:13;100702.31;;;15.04;100.00
49827;BME280;35715;51.570;6.036;2023-05-10T00:54:38;100692.59;;;15.00;100.00
49827;BME280;35715;51.570;6.036;2023-05-10T00:57:03;100704.78;;;15.01;100.00
49827;BME280;35715;51.570;6.036;2023-05-10T00:59:29;100710.06;;;15.02;100.00
49827;BME280;35715;51.570;6.036;2023-05-10T01:01:54;100702.25;;;15.02;100.00
49827;BME280;35715;51.570;6.036;2023-05-10T01:04:19;100704.72;;;14.99;100.00
49827;BME280;35715;51.570;6.036;2023-05-10T01:06:50;100702.91;;;14.98;100.00
49827;BME280;35715;51.570;6.036;2023-05-10T01:09:15;100707.22;;;14.98;100.00
49827;BME280;35715;51.570;6.036;2023-05-10T01:11:41;100707.16;;;14.96;100.00
49827;BME280;35715;51.570;6.036;2023-05-10T01:14:06;100708.03;;;14.97;100.00
49827;BME280;35715;51.570;6.036;2023-05-10T01:16:32;100704.63;;;14.98;100.00
49827;BME280;35715;51.570;6.036;2023-05-10T01:18:59;100700.25;;;14.97;100.00
49827;BME280;35715;51.570;6.036;2023-05-10T01:21:33;100703.59;;;14.94;100.00
49827;BME280;35715;51.570;6.036;2023-05-10T01:24:14;100697.28;;;14.89;100.00
49827;BME280;35715;51.570;6.036;2023-05-10T01:27:02;100694.63;;;14.87;100.00
49827;BME280;35715;51.570;6.036;2023-05-10T01:32:12;100707.47;;;14.84;100.00
49827;BME280;35715;51.570;6.036;2023-05-10T01:37:23;100712.59;;;14.83;100.00
49827;BME280;35715;51.570;6.036;2023-05-10T01:40:05;100711.63;;;14.81;100.00
49827;BME280;35715;51.570;6.036;2023-05-10T01:42:36;100708.97;;;14.79;100.00
49827;BME280;35715;51.570;6.036;2023-05-10T01:45:14;100715.97;;;14.82;100.00
49827;BME280;35715;51.570;6.036;2023-05-10T01:47:43;100712.50;;;14.81;100.00
49827;BME280;35715;51.570;6.036;2023-05-10T01:50:17;100712.44;;;14.80;100.00
49827;BME280;35715;51.570;6.036;2023-05-10T01:52:47;100705.53;;;14.80;100.00
49827;BME280;35715;51.570;6.036;2023-05-10T01:55:15;100703.69;;;14.78;100.00
49827;BME280;35715;51.570;6.036;2023-05-10T01:57:42;100703.63;;;14.76;100.00
49827;BME280;35715;51.570;6.036;2023-05-10T02:00:08;100711.41;;;14.76;100.00
49827;BME280;35715;51.570;6.036;2023-05-10T02:02:36;100701.09;;;14.78;100.00
49827;BME280;35715;51.570;6.036;2023-05-10T02:05:03;100698.41;;;14.76;100.00
49827;BME280;35715;51.570;6.036;2023-05-10T02:07:28;100707.09;;;14.77;100.00
49827;BME280;35715;51.570;6.036;2023-05-10T02:09:54;100704.66;;;14.80;100.00
49827;BME280;35715;51.570;6.036;2023-05-10T02:12:39;100708.03;;;14.79;100.00
49827;BME280;35715;51.570;6.036;2023-05-10T02:15:05;100711.63;;;14.81;100.00
49827;BME280;35715;51.570;6.036;2023-05-10T02:17:32;100712.50;;;14.81;100.00
49827;BME280;35715;51.570;6.036;2023-05-10T02:19:58;100711.63;;;14.81;100.00
49827;BME280;35715;51.570;6.036;2023-05-10T02:22:25;100724.63;;;14.81;100.00
49827;BME280;35715;51.570;6.036;2023-05-10T02:24:51;100716.81;;;14.81;100.00
49827;BME280;35715;51.570;6.036;2023-05-10T02:27:17;100719.41;;;14.81;100.00
49827;BME280;35715;51.570;6.036;2023-05-10T02:29:44;100718.66;;;14.83;100.00
49827;BME280;35715;51.570;6.036;2023-05-10T02:32:17;100723.03;;;14.84;100.00
49827;BME280;35715;51.570;6.036;2023-05-10T02:34:44;100713.25;;;14.79;100.00
49827;BME280;35715;51.570;6.036;2023-05-10T02:37:10;100730.63;;;14.80;100.00
49827;BME280;35715;51.570;6.036;2023-05-10T02:39:37;100728.03;;;14.80;100.00
49827;BME280;35715;51.570;6.036;2023-05-10T02:42:03;100724.41;;;14.76;100.00
49827;BME280;35715;51.570;6.036;2023-05-10T02:44:29;100725.19;;;14.75;100.00
49827;BME280;35715;51.570;6.036;2023-05-10T02:46:56;100729.47;;;14.75;100.00
49827;BME280;35715;51.570;6.036;2023-05-10T02:49:21;100725.13;;;14.73;100.00
49827;BME280;35715;51.570;6.036;2023-05-10T02:51:49;100732.63;;;14.67;100.00
49827;BME280;35715;51.570;6.036;2023-05-10T02:54:18;100722.16;;;14.66;100.00
49827;BME280;35715;51.570;6.036;2023-05-10T02:56:47;100731.56;;;14.64;100.00
49827;BME280;35715;51.570;6.036;2023-05-10T02:59:14;100729.88;;;14.64;100.00
49827;BME280;35715;51.570;6.036;2023-05-10T03:01:40;100720.09;;;14.60;100.00
49827;BME280;35715;51.570;6.036;2023-05-10T03:04:11;100728.69;;;14.59;100.00
49827;BME280;35715;51.570;6.036;2023-05-10T03:06:36;100730.59;;;14.62;100.00
49827;BME280;35715;51.570;6.036;2023-05-10T03:09:02;100729.72;;;14.61;100.00
49827;BME280;35715;51.570;6.036;2023-05-10T03:14:06;100726.38;;;14.64;100.00
49827;BME280;35715;51.570;6.036;2023-05-10T03:16:40;100730.81;;;14.66;100.00
49827;BME280;35715;51.570;6.036;2023-05-10T03:19:16;100740.34;;;14.66;100.00
49827;BME280;35715;51.570;6.036;2023-05-10T03:21:43;100731.72;;;14.67;100.00
49827;BME280;35715;51.570;6.036;2023-05-10T03:24:12;100734.44;;;14.70;100.00
49827;BME280;35715;51.570;6.036;2023-05-10T03:26:40;100736.31;;;14.72;100.00
49827;BME280;35715;51.570;6.036;2023-05-10T03:29:08;100737.28;;;14.75;100.00
49827;BME280;35715;51.570;6.036;2023-05-10T03:31:34;100743.38;;;14.75;100.00
49827;BME280;35715;51.570;6.036;2023-05-10T03:34:01;100745.81;;;14.72;100.00
49827;BME280;35715;51.570;6.036;2023-05-10T03:36:26;100748.34;;;14.70;100.00
49827;BME280;35715;51.570;6.036;2023-05-10T03:38:51;100748.44;;;14.72;100.00
49827;BME280;35715;51.570;6.036;2023-05-10T03:41:17;100748.56;;;14.75;100.00
49827;BME280;35715;51.570;6.036;2023-05-10T03:43:43;100756.53;;;14.78;100.00
49827;BME280;35715;51.570;6.036;2023-05-10T03:46:08;100760.97;;;14.81;100.00
49827;BME280;35715;51.570;6.036;2023-05-10T03:48:33;100759.25;;;14.81;100.00
49827;BME280;35715;51.570;6.036;2023-05-10T03:50:58;100758.38;;;14.81;100.00
49827;BME280;35715;51.570;6.036;2023-05-10T03:53:25;100762.81;;;14.83;100.00
49827;BME280;35715;51.570;6.036;2023-05-10T03:55:50;100760.28;;;14.85;100.00
49827;BME280;35715;51.570;6.036;2023-05-10T03:58:15;100762.09;;;14.86;100.00
49827;BME280;35715;51.570;6.036;2023-05-10T04:00:40;100761.13;;;14.84;100.00
49827;BME280;35715;51.570;6.036;2023-05-10T04:03:10;100761.19;;;14.85;100.00
49827;BME280;35715;51.570;6.036;2023-05-10T04:05:36;100761.06;;;14.82;100.00
49827;BME280;35715;51.570;6.036;2023-05-10T04:08:02;100763.50;;;14.79;100.00
49827;BME280;35715;51.570;6.036;2023-05-10T04:10:27;100759.13;;;14.78;100.00
49827;BME280;35715;51.570;6.036;2023-05-10T04:12:54;100765.25;;;14.80;100.00
49827;BME280;35715;51.570;6.036;2023-05-10T04:15:19;100766.84;;;14.77;100.00
49827;BME280;35715;51.570;6.036;2023-05-10T04:17:44;100764.16;;;14.75;100.00
49827;BME280;35715;51.570;6.036;2023-05-10T04:20:10;100767.41;;;14.71;100.00
49827;BME280;35715;51.570;6.036;2023-05-10T04:22:35;100761.91;;;14.65;100.00
49827;BME280;35715;51.570;6.036;2023-05-10T04:25:01;100764.44;;;14.63;100.00
49827;BME280;35715;51.570;6.036;2023-05-10T04:27:26;100766.22;;;14.64;100.00
49827;BME280;35715;51.570;6.036;2023-05-10T04:29:52;100763.72;;;14.66;100.00
49827;BME280;35715;51.570;6.036;2023-05-10T04:32:17;100763.72;;;14.66;100.00
49827;BME280;35715;51.570;6.036;2023-05-10T04:34:43;100770.72;;;14.68;100.00
49827;BME280;35715;51.570;6.036;2023-05-10T04:37:08;100776.06;;;14.71;100.00
49827;BME280;35715;51.570;6.036;2023-05-10T04:39:33;100774.31;;;14.70;100.00
49827;BME280;35715;51.570;6.036;2023-05-10T04:41:59;100776.91;;;14.70;100.00
49827;BME280;35715;51.570;6.036;2023-05-10T04:44:25;100776.00;;;14.70;100.00
49827;BME280;35715;51.570;6.036;2023-05-10T04:46:50;100774.25;;;14.69;100.00
49827;BME280;35715;51.570;6.036;2023-05-10T04:49:15;100779.50;;;14.70;100.00
49827;BME280;35715;51.570;6.036;2023-05-10T04:51:41;100777.00;;;14.72;100.00
49827;BME280;35715;51.570;6.036;2023-05-10T04:54:10;100782.34;;;14.75;100.00
49827;BME280;35715;51.570;6.036;2023-05-10T04:56:35;100783.88;;;14.71;100.00
49827;BME280;35715;51.570;6.036;2023-05-10T04:59:00;100781.28;;;14.71;100.00
49827;BME280;35715;51.570;6.036;2023-05-10T05:01:26;100782.19;;;14.72;100.00
49827;BME280;35715;51.570;6.036;2023-05-10T05:03:53;100777.88;;;14.72;100.00
49827;BME280;35715;51.570;6.036;2023-05-10T05:06:18;100782.34;;;14.75;100.00
49827;BME280;35715;51.570;6.036;2023-05-10T05:08:43;100782.41;;;14.77;100.00
49827;BME280;35715;51.570;6.036;2023-05-10T05:11:09;100788.63;;;14.80;100.00
49827;BME280;35715;51.570;6.036;2023-05-10T05:13:35;100786.03;;;14.80;100.00
49827;BME280;35715;51.570;6.036;2023-05-10T05:16:03;100786.88;;;14.79;100.00
49827;BME280;35715;51.570;6.036;2023-05-10T05:18:29;100792.06;;;14.79;100.00
49827;BME280;35715;51.570;6.036;2023-05-10T05:20:54;100790.34;;;14.80;100.00
49827;BME280;35715;51.570;6.036;2023-05-10T05:23:20;100790.34;;;14.80;100.00
49827;BME280;35715;51.570;6.036;2023-05-10T05:25:49;100796.34;;;14.79;100.00
49827;BME280;35715;51.570;6.036;2023-05-10T05:28:14;100792.00;;;14.78;100.00
49827;BME280;35715;51.570;6.036;2023-05-10T05:30:39;100793.59;;;14.76;100.00
49827;BME280;35715;51.570;6.036;2023-05-10T05:33:09;100800.38;;;14.72;100.00
49827;BME280;35715;51.570;6.036;2023-05-10T05:35:34;100796.84;;;14.71;100.00
49827;BME280;35715;51.570;6.036;2023-05-10T05:37:59;100801.31;;;14.74;100.00
49827;BME280;35715;51.570;6.036;2023-05-10T05:40:25;100802.97;;;14.72;100.00
49827;BME280;35715;51.570;6.036;2023-05-10T05:42:56;100804.66;;;14.71;100.00
49827;BME280;35715;51.570;6.036;2023-05-10T05:45:21;100805.56;;;14.72;100.00
49827;BME280;35715;51.570;6.036;2023-05-10T05:47:46;100803.84;;;14.72;100.00
49827;BME280;35715;51.570;6.036;2023-05-10T05:50:12;100804.00;;;14.76;100.00
49827;BME280;35715;51.570;6.036;2023-05-10T05:52:42;100805.94;;;14.80;100.00
49827;BME280;35715;51.570;6.036;2023-05-10T05:55:08;100810.34;;;14.81;100.00
49827;BME280;35715;51.570;6.036;2023-05-10T05:57:33;100812.09;;;14.82;100.00
49827;BME280;35715;51.570;6.036;2023-05-10T05:59:58;100824.28;;;14.83;100.00
49827;BME280;35715;51.570;6.036;2023-05-10T06:02:34;100817.22;;;14.80;100.00
49827;BME280;35715;51.570;6.036;2023-05-10T06:04:59;100826.03;;;14.66;100.00
49827;BME280;35715;51.570;6.036;2023-05-10T06:07:25;100835.09;;;14.58;100.00
49827;BME280;35715;51.570;6.036;2023-05-10T06:09:50;100828.06;;;14.55;100.00
49827;BME280;35715;51.570;6.036;2023-05-10T06:12:22;100831.22;;;14.49;100.00
49827;BME280;35715;51.570;6.036;2023-05-10T06:14:47;100836.09;;;14.43;100.00
49827;BME280;35715;51.570;6.036;2023-05-10T06:17:13;100833.66;;;14.46;100.00
49827;BME280;35715;51.570;6.036;2023-05-10T06:19:38;100844.28;;;14.51;100.00
49827;BME280;35715;51.570;6.036;2023-05-10T06:22:08;100847.75;;;14.51;100.00
49827;BME280;35715;51.570;6.036;2023-05-10T06:24:34;100837.88;;;14.61;100.00
49827;BME280;35715;51.570;6.036;2023-05-10T06:26:59;100847.84;;;14.69;100.00
49827;BME280;35715;51.570;6.036;2023-05-10T06:29:25;100848.72;;;14.70;100.00
49827;BME280;35715;51.570;6.036;2023-05-10T06:31:50;100849.72;;;14.72;100.00
49827;BME280;35715;51.570;6.036;2023-05-10T06:34:15;100855.13;;;14.77;100.00
49827;BME280;35715;51.570;6.036;2023-05-10T06:36:42;100851.22;;;14.85;100.00
49827;BME280;35715;51.570;6.036;2023-05-10T06:39:07;100849.91;;;14.93;100.00
49827;BME280;35715;51.570;6.036;2023-05-10T06:41:33;100847.09;;;15.06;100.00
49827;BME280;35715;51.570;6.036;2023-05-10T06:43:59;100851.25;;;15.21;100.00
49827;BME280;35715;51.570;6.036;2023-05-10T06:46:24;100848.28;;;15.49;100.00
49827;BME280;35715;51.570;6.036;2023-05-10T06:48:49;100850.88;;;15.67;100.00
49827;BME280;35715;51.570;6.036;2023-05-10T06:51:15;100854.88;;;15.78;100.00
49827;BME280;35715;51.570;6.036;2023-05-10T06:56:08;100862.91;;;15.83;98.83
49827;BME280;35715;51.570;6.036;2023-05-10T06:58:33;100865.88;;;15.91;98.66
49827;BME280;35715;51.570;6.036;2023-05-10T07:01:02;100859.13;;;15.94;97.75
49827;BME280;35715;51.570;6.036;2023-05-10T07:03:35;100865.81;;;16.09;96.68
49827;BME280;35715;51.570;6.036;2023-05-10T07:06:01;100866.16;;;16.56;96.17
49827;BME280;35715;51.570;6.036;2023-05-10T07:08:28;100865.88;;;17.31;95.21
49827;BME280;35715;51.570;6.036;2023-05-10T07:10:53;100864.84;;;17.71;94.46
49827;BME280;35715;51.570;6.036;2023-05-10T07:13:20;100871.94;;;17.52;89.98
49827;BME280;35715;51.570;6.036;2023-05-10T07:15:45;100878.84;;;17.08;86.36
49827;BME280;35715;51.570;6.036;2023-05-10T07:18:10;100877.25;;;16.71;87.67
49827;BME280;35715;51.570;6.036;2023-05-10T07:20:36;100876.19;;;16.46;88.86
49827;BME280;35715;51.570;6.036;2023-05-10T07:23:06;100888.72;;;16.16;88.84
49827;BME280;35715;51.570;6.036;2023-05-10T07:25:31;100892.03;;;15.94;88.54
49827;BME280;35715;51.570;6.036;2023-05-10T07:27:56;100886.75;;;15.74;89.85
49827;BME280;35715;51.570;6.036;2023-05-10T07:30:22;100895.25;;;15.70;91.04
49827;BME280;35715;51.570;6.036;2023-05-10T07:32:47;100900.97;;;15.63;92.09
49827;BME280;35715;51.570;6.036;2023-05-10T07:35:12;100895.53;;;15.58;92.09
49827;BME280;35715;51.570;6.036;2023-05-10T07:37:37;100900.81;;;15.60;92.60
49827;BME280;35715;51.570;6.036;2023-05-10T07:40:03;100902.69;;;15.63;93.01
49827;BME280;35715;51.570;6.036;2023-05-10T07:42:28;100899.31;;;15.65;93.48
49827;BME280;35715;51.570;6.036;2023-05-10T07:44:54;100905.94;;;15.58;92.36
49827;BME280;35715;51.570;6.036;2023-05-10T07:47:19;100906.75;;;15.57;92.87
49827;BME280;35715;51.570;6.036;2023-05-10T07:49:44;100912.72;;;15.55;93.68
49827;BME280;35715;51.570;6.036;2023-05-10T07:52:10;100914.47;;;15.56;93.87
49827;BME280;35715;51.570;6.036;2023-05-10T07:54:36;100913.59;;;15.55;94.19
49827;BME280;35715;51.570;6.036;2023-05-10T07:57:01;100917.91;;;15.55;93.77
49827;BME280;35715;51.570;6.036;2023-05-10T07:59:26;100915.41;;;15.56;94.75
49827;BME280;35715;51.570;6.036;2023-05-10T08:01:51;100914.47;;;15.56;95.07
49827;BME280;35715;51.570;6.036;2023-05-10T08:04:16;100915.97;;;15.51;93.81
49827;BME280;35715;51.570;6.036;2023-05-10T08:06:42;100915.91;;;15.49;94.26
49827;BME280;35715;51.570;6.036;2023-05-10T08:09:07;100917.50;;;15.47;94.52
49827;BME280;35715;51.570;6.036;2023-05-10T08:11:33;100919.09;;;15.43;94.28
49827;BME280;35715;51.570;6.036;2023-05-10T08:13:58;100922.34;;;15.39;94.42
49827;BME280;35715;51.570;6.036;2023-05-10T08:16:23;100921.53;;;15.40;94.90
49827;BME280;35715;51.570;6.036;2023-05-10T08:18:49;100921.53;;;15.40;94.92
49827;BME280;35715;51.570;6.036;2023-05-10T08:21:15;100925.03;;;15.41;95.32
49827;BME280;35715;51.570;6.036;2023-05-10T08:23:41;100932.00;;;15.42;95.65
49827;BME280;35715;51.570;6.036;2023-05-10T08:26:06;100929.41;;;15.42;95.53
49827;BME280;35715;51.570;6.036;2023-05-10T08:28:31;100931.88;;;15.39;95.31
49827;BME280;35715;51.570;6.036;2023-05-10T08:30:57;100934.38;;;15.37;95.46
49827;BME280;35715;51.570;6.036;2023-05-10T08:33:22;100935.41;;;15.41;96.33
49827;BME280;35715;51.570;6.036;2023-05-10T08:35:47;100940.63;;;15.41;95.75
49827;BME280;35715;51.570;6.036;2023-05-10T08:38:12;100945.81;;;15.41;95.60
49827;BME280;35715;51.570;6.036;2023-05-10T08:40:39;100943.75;;;15.34;95.22
49827;BME280;35715;51.570;6.036;2023-05-10T08:43:07;100946.28;;;15.32;95.78
49827;BME280;35715;51.570;6.036;2023-05-10T08:45:36;100948.72;;;15.29;96.05
49827;BME280;35715;51.570;6.036;2023-05-10T08:48:02;100957.97;;;15.24;96.14
49827;BME280;35715;51.570;6.036;2023-05-10T08:50:28;100956.19;;;15.23;96.11
49827;BME280;35715;51.570;6.036;2023-05-10T08:52:55;100955.53;;;15.27;96.44
49827;BME280;35715;51.570;6.036;2023-05-10T08:55:23;100962.59;;;15.30;96.91
49827;BME280;35715;51.570;6.036;2023-05-10T08:57:48;100954.97;;;15.33;96.90
49827;BME280;35715;51.570;6.036;2023-05-10T09:00:14;100970.72;;;15.36;97.16
49827;BME280;35715;51.570;6.036;2023-05-10T09:02:40;100964.72;;;15.37;96.93
49827;BME280;35715;51.570;6.036;2023-05-10T09:05:07;100973.31;;;15.36;97.08
49827;BME280;35715;51.570;6.036;2023-05-10T09:07:32;100973.16;;;15.33;97.34
49827;BME280;35715;51.570;6.036;2023-05-10T09:09:57;100970.41;;;15.30;97.72
49827;BME280;35715;51.570;6.036;2023-05-10T09:12:23;100977.31;;;15.29;97.88
49827;BME280;35715;51.570;6.036;2023-05-10T09:14:48;100976.09;;;15.22;97.79
49827;BME280;35715;51.570;6.036;2023-05-10T09:17:15;100981.16;;;15.19;97.51
49827;BME280;35715;51.570;6.036;2023-05-10T09:19:40;100978.47;;;15.18;98.11
49827;BME280;35715;51.570;6.036;2023-05-10T09:22:06;100985.63;;;15.22;98.50
49827;BME280;35715;51.570;6.036;2023-05-10T09:24:31;100982.34;;;15.26;98.63
49827;BME280;35715;51.570;6.036;2023-05-10T09:26:57;100986.97;;;15.32;98.80
49827;BME280;35715;51.570;6.036;2023-05-10T09:29:23;100988.34;;;15.41;98.50
49827;BME280;35715;51.570;6.036;2023-05-10T09:31:49;100990.63;;;15.53;98.83
49827;BME280;35715;51.570;6.036;2023-05-10T09:34:20;101001.03;;;15.53;98.35
49827;BME280;35715;51.570;6.036;2023-05-10T09:36:57;101001.22;;;15.56;98.47
49827;BME280;35715;51.570;6.036;2023-05-10T09:41:57;100998.06;;;15.64;98.41
49827;BME280;35715;51.570;6.036;2023-05-10T09:44:22;101000.75;;;15.65;98.64
49827;BME280;35715;51.570;6.036;2023-05-10T09:46:49;101003.75;;;15.55;97.33
49827;BME280;35715;51.570;6.036;2023-05-10T09:49:15;101011.13;;;15.47;97.21
49827;BME280;35715;51.570;6.036;2023-05-10T09:51:41;101015.22;;;15.42;97.38
49827;BME280;35715;51.570;6.036;2023-05-10T09:54:13;101015.28;;;15.43;97.37
49827;BME280;35715;51.570;6.036;2023-05-10T09:56:41;101016.25;;;15.46;97.60
49827;BME280;35715;51.570;6.036;2023-05-10T09:59:10;101016.63;;;15.53;98.04
49827;BME280;35715;51.570;6.036;2023-05-10T10:01:36;101017.34;;;15.67;98.09
49827;BME280;35715;51.570;6.036;2023-05-10T10:04:13;101015.38;;;15.79;97.68
49827;BME280;35715;51.570;6.036;2023-05-10T10:06:39;101010.78;;;15.92;97.38
49827;BME280;35715;51.570;6.036;2023-05-10T10:09:05;101012.88;;;15.99;96.62
49827;BME280;35715;51.570;6.036;2023-05-10T10:11:31;101017.91;;;16.14;95.86
49827;BME280;35715;51.570;6.036;2023-05-10T10:16:30;101020.97;;;16.61;95.01
49827;BME280;35715;51.570;6.036;2023-05-10T10:18:58;101020.16;;;16.81;93.73
49827;BME280;35715;51.570;6.036;2023-05-10T10:21:24;101015.78;;;17.00;93.16
49827;BME280;35715;51.570;6.036;2023-05-10T10:23:49;101013.75;;;17.12;90.49
49827;BME280;35715;51.570;6.036;2023-05-10T10:26:15;101013.88;;;17.15;90.94
49827;BME280;35715;51.570;6.036;2023-05-10T10:28:50;101019.44;;;17.03;89.40
49827;BME280;35715;51.570;6.036;2023-05-10T10:31:23;101021.97;;;17.02;88.76
49827;BME280;35715;51.570;6.036;2023-05-10T10:36:50;101015.16;;;17.25;83.60
49827;BME280;35715;51.570;6.036;2023-05-10T10:39:16;101012.88;;;17.54;86.84
49827;BME280;35715;51.570;6.036;2023-05-10T10:41:51;101005.50;;;17.86;86.11
49827;BME280;35715;51.570;6.036;2023-05-10T10:47:07;101009.06;;;18.78;82.32
49827;BME280;35715;51.570;6.036;2023-05-10T10:54:51;101004.25;;;19.65;78.01
49827;BME280;35715;51.570;6.036;2023-05-10T10:57:18;101014.28;;;19.51;77.52
49827;BME280;35715;51.570;6.036;2023-05-10T10:59:43;101013.75;;;19.36;76.39
49827;BME280;35715;51.570;6.036;2023-05-10T11:02:33;101009.41;;;19.36;77.02
49827;BME280;35715;51.570;6.036;2023-05-10T11:04:56;101018.88;;;19.32;75.60
49827;BME280;35715;51.570;6.036;2023-05-10T11:07:21;101016.72;;;19.21;76.71
49827;BME280;35715;51.570;6.036;2023-05-10T11:09:48;101019.59;;;19.28;78.26
49827;BME280;35715;51.570;6.036;2023-05-10T11:12:15;101022.06;;;19.24;75.58
49827;BME280;35715;51.570;6.036;2023-05-10T11:14:40;101021.44;;;19.31;74.39
49827;BME280;35715;51.570;6.036;2023-05-10T11:17:24;101020.88;;;19.40;75.97
49827;BME280;35715;51.570;6.036;2023-05-10T11:20:09;101021.84;;;19.18;74.08
49827;BME280;35715;51.570;6.036;2023-05-10T11:25:26;101028.06;;;18.73;75.35
49827;BME280;35715;51.570;6.036;2023-05-10T11:27:51;101021.53;;;18.61;75.18
49827;BME280;35715;51.570;6.036;2023-05-10T11:30:17;101028.59;;;18.64;77.24
49827;BME280;35715;51.570;6.036;2023-05-10T11:32:43;101028.13;;;18.52;76.24
49827;BME280;35715;51.570;6.036;2023-05-10T11:35:10;101033.78;;;18.40;77.66
49827;BME280;35715;51.570;6.036;2023-05-10T11:37:35;101036.63;;;18.23;78.04
49827;BME280;35715;51.570;6.036;2023-05-10T11:40:01;101034.28;;;18.08;78.12
49827;BME280;35715;51.570;6.036;2023-05-10T11:42:29;101036.22;;;17.91;78.33
49827;BME280;35715;51.570;6.036;2023-05-10T11:44:56;101038.22;;;17.78;79.11
49827;BME280;35715;51.570;6.036;2023-05-10T11:47:21;101038.66;;;17.67;81.11
49827;BME280;35715;51.570;6.036;2023-05-10T11:49:47;101037.13;;;17.51;79.88
49827;BME280;35715;51.570;6.036;2023-05-10T11:52:13;101038.66;;;17.46;82.49
49827;BME280;35715;51.570;6.036;2023-05-10T11:55:13;101034.97;;;17.41;82.70
49827;BME280;35715;51.570;6.036;2023-05-10T11:57:31;101041.19;;;17.45;82.97
49827;BME280;35715;51.570;6.036;2023-05-10T11:59:57;101037.13;;;17.51;82.79
49827;BME280;35715;51.570;6.036;2023-05-10T12:02:23;101033.91;;;17.78;84.08
49827;BME280;35715;51.570;6.036;2023-05-10T12:04:49;101036.91;;;18.31;85.11
49827;BME280;35715;51.570;6.036;2023-05-10T12:07:14;101030.81;;;19.24;83.90
49827;BME280;35715;51.570;6.036;2023-05-10T12:09:43;101023.53;;;20.20;83.75
49827;BME280;35715;51.570;6.036;2023-05-10T12:12:15;101026.59;;;21.25;80.52
49827;BME280;35715;51.570;6.036;2023-05-10T12:14:41;101019.13;;;21.08;77.00
49827;BME280;35715;51.570;6.036;2023-05-10T12:17:06;101034.06;;;20.79;75.33
49827;BME280;35715;51.570;6.036;2023-05-10T12:19:39;101038.09;;;20.68;75.10
49827;BME280;35715;51.570;6.036;2023-05-10T12:22:05;101030.50;;;20.48;74.79
49827;BME280;35715;51.570;6.036;2023-05-10T12:24:33;101027.34;;;20.60;77.12
49827;BME280;35715;51.570;6.036;2023-05-10T12:26:58;101024.47;;;20.51;73.94
49827;BME280;35715;51.570;6.036;2023-05-10T12:29:23;101032.59;;;20.31;75.26
49827;BME280;35715;51.570;6.036;2023-05-10T12:31:55;101025.41;;;19.97;74.63
49827;BME280;35715;51.570;6.036;2023-05-10T12:34:30;101033.00;;;19.63;75.07
49827;BME280;35715;51.570;6.036;2023-05-10T12:36:55;101039.09;;;19.37;74.95
49827;BME280;35715;51.570;6.036;2023-05-10T12:39:21;101040.00;;;19.13;76.01
49827;BME280;35715;51.570;6.036;2023-05-10T12:41:46;101046.06;;;18.88;76.85
49827;BME280;35715;51.570;6.036;2023-05-10T12:46:42;101060.16;;;18.46;78.46
49827;BME280;35715;51.570;6.036;2023-05-10T12:49:07;101060.06;;;18.22;77.36
49827;BME280;35715;51.570;6.036;2023-05-10T12:51:32;101079.44;;;18.06;78.87
49827;BME280;35715;51.570;6.036;2023-05-10T12:53:58;101079.47;;;17.86;82.24
49827;BME280;35715;51.570;6.036;2023-05-10T12:56:24;101075.63;;;17.57;83.46
49827;BME280;35715;51.570;6.036;2023-05-10T12:58:49;101084.22;;;17.35;84.08
49827;BME280;35715;51.570;6.036;2023-05-10T13:01:14;101082.13;;;17.26;85.15
49827;BME280;35715;51.570;6.036;2023-05-10T13:03:40;101077.41;;;17.17;86.05
49827;BME280;35715;51.570;6.036;2023-05-10T13:06:05;101078.91;;;17.12;86.59
49827;BME280;35715;51.570;6.036;2023-05-10T13:08:31;101081.22;;;17.06;87.81
49827;BME280;35715;51.570;6.036;2023-05-10T13:10:58;101084.47;;;17.00;86.88
49827;BME280;35715;51.570;6.036;2023-05-10T13:13:24;101079.66;;;16.90;86.69
49827;BME280;35715;51.570;6.036;2023-05-10T13:15:50;101074.06;;;16.82;86.90
49827;BME280;35715;51.570;6.036;2023-05-10T13:18:15;101072.19;;;16.80;87.43
49827;BME280;35715;51.570;6.036;2023-05-10T13:20:40;101082.53;;;16.78;88.19